Tiempo atmosférico en la estación meteorológica de Écija, Sevilla (130 m.)



Fecha
DESCASC
Temp. máxima en grados centígrados (hora)
DESCASC
Temp. mínima en grados centígrados (hora)
DESCASC
Temp. media en grados centígrados
DESCASC
Racha de viento máxima en m/sg (hora)
DESCASC
Velocidad máxima media en intervalos de 10 minutos(hora)
DESCASC
Precipitaciones diarias en mm
DESCASC
Precipitaciones de 00:00 a 06:00 en mm
DESCASC
Precipitaciones de 06:00 a 12:00 en mm
DESCASC
Precipitaciones de 12:00 a 18:00 en mm
DESCASC
Precipitaciones de 18:00 a 24:00 en mm
DESCASC
06-12-2018 22.2 (16:30) 6 (08:10) 14.1 -- (--) -- (--) 0 0 0 0 0
05-12-2018 22 (16:40) 6.3 (07:10) 14.2 -- (--) -- (--) 0 0 0 0 0
04-12-2018 22.3 (16:30) 6.8 (08:00) 14.5 -- (--) -- (--) 0 0 0 0 0
03-12-2018 20.3 (16:00) 4.7 (00:00) 12.5 -- (--) -- (--) 0 0 0 0 0
02-12-2018 17.7 (15:50) 4.1 (00:00) 10.9 -- (--) -- (--) 0 0 0 0 0
01-12-2018 16.9 (16:00) 3.9 (00:00) 10.4 -- (--) -- (--) 0 0 0 0 0
30-11-2018 17.1 (16:30) 7.3 (00:00) 12.2 -- (--) -- (--) 2.6 1.8 0.8 0 0
29-11-2018 17.4 (16:00) 2.6 (00:00) 10 5.56 (13:30) 3.61 (14:00) 0.1 0 0.1 0 0
28-11-2018 18.5 (16:00) 3.9 (00:00) 11.2 3.33 (14:00) 1.94 (14:00) 0 0 0 0 0
27-11-2018 16.8 (16:10) 5.4 (00:00) 11.1 4.72 (13:30) 3.33 (13:40) 0 0 0 0 0
25-11-2018 18.4 (14:50) 11 (00:00) 14.7 15.56 (23:50) 10.83 (23:30) 10.9 1.7 0.8 0.2 8.2
24-11-2018 16.8 (15:50) 5.5 (00:00) 11.1 5 (16:40) 2.78 (16:40) 0 0 0 0 0
23-11-2018 17.1 (16:10) 9.1 (00:00) 13.1 4.17 (05:30) 2.78 (05:30) 6 5.9 0.1 0 0
22-11-2018 14.5 (15:00) 10.3 (00:00) 12.4 3.61 (07:00) 2.5 (07:10) 19.3 0 7 1.4 10.9
21-11-2018 15.4 (12:30) 10.5 (00:00) 12.9 4.72 (00:10) 3.33 (00:20) 4 0 0.1 3.9 0
20-11-2018 16.7 (15:00) 10.3 (00:00) 13.5 13.33 (14:20) 7.22 (14:20) 11 6 4.9 0.1 0
19-11-2018 16.4 (15:10) 11.7 (00:00) 14 7.5 (16:50) 5 (16:50) 7 0.2 6.2 0 0.6
18-11-2018 16.1 (01:40) 11.6 (00:00) 13.9 8.33 (01:40) 5 (01:40) 24.9 0 13 11.9 0
17-11-2018 21.3 (14:20) 10.3 (00:00) 15.8 8.33 (14:00) 6.39 (14:10) 0 0 0 0 0
16-11-2018 20.8 (14:50) 10.6 (00:00) 15.7 6.39 (14:30) 3.89 (12:20) 0 0 0 0 0
15-11-2018 20.7 (15:10) 12.1 (00:00) 16.4 3.33 (10:30) 2.22 (20:20) 0 0 0 0 0
14-11-2018 21.5 (15:30) 12 (00:00) 16.8 5.28 (14:40) 3.61 (14:40) 0 0 0 0 0
13-11-2018 21.5 (16:10) 10.6 (00:00) 16.1 4.17 (10:50) 3.06 (08:10) 0 0 0 0 0
12-11-2018 17.9 (17:10) 11.5 (00:00) 14.7 5.28 (20:00) 4.17 (20:00) 1.7 0 1.7 0 0
11-11-2018 22.2 (16:50) 13.6 (00:00) 17.9 11.11 (19:50) 5 (20:30) 1.2 0 1.2 0 0
10-11-2018 16.5 (16:10) 8.3 (00:00) 12.4 5.83 (14:10) 4.17 (14:10) 0 0 0 0 0
09-11-2018 17 (16:50) 7.3 (00:00) 12.2 7.22 (20:30) 5.28 (20:30) 0 0 0 0 0

Gráficas

Temp. máximas Temp. mínimas Temp. medias Precipitaciones Rachas de viento máximas Velocidades máximas media en intervalos de 10 minutos

Datos horarios

Fecha y hora oficial Temperatura (ºC) Velocidad del viento (km/h) Dirección del viento Racha (km/h) Dirección de racha Precipitación (mm) Presión (hPa) Tendencia (hPa) Humedad (%)
2018-12-08 23:00:00 7.9 0 Calma 0 Calma 0 1014.6 1.1 92
2018-12-08 22:00:00 8.5 3 Sur 5 Sur 0 1014.1 0.9 89
2018-12-08 21:00:00 9.3 0 Calma 4 Norte 0 1013.9 1.1 82
2018-12-08 20:00:00 10.8 0 Calma 0 Calma 0 1013.5 0.5 76
2018-12-08 19:00:00 12 0 Calma 2 Noroeste 0 1013.2 0.3 70
2018-12-08 18:00:00 14.4 0 Calma 8 Nordeste 0 1012.8 -0.3 63
2018-12-08 17:00:00 16.7 7 Nordeste 20 Nordeste 0 1013 -0.3 57
2018-12-08 16:00:00 16.8 6 Nordeste 17 Norte 0 1012.9 -1 61
2018-12-08 15:00:00 15.4 6 Nordeste 21 Nordeste 0 1013.1 -1.5 63
2018-12-08 14:00:00 15.5 7 Nordeste 15 Norte 0 1013.3 -1.9 63
2018-12-08 13:00:00 14.6 7 Nordeste 17 Nordeste 0 1013.9 -1 65
2018-12-08 12:00:00 13.4 8 Nordeste 14 Este 0 1014.6 0.2 72
2018-12-08 11:00:00 11 5 Este 9 Sudeste 0 1015.2 1.2 89
2018-12-08 10:00:00 8.5 0 Calma 7 Noroeste 0 1014.9 1.1 99
2018-12-08 09:00:00 5.5 4 Noroeste 7 Noroeste 0 1014.4 0.8 99
2018-12-08 08:00:00 4.6 0 Calma 5 Noroeste 0 1014 0.4 99
2018-12-08 07:00:00 5 0 Calma 4 Sudoeste 0 1013.8 -0.2 99
2018-12-08 06:00:00 5.9 0 Calma 5 Sur 0 1013.6 -0.4 99
2018-12-08 05:00:00 5.7 3 Sudoeste 8 Sudoeste 0 1013.6 -0.1 99
2018-12-08 04:00:00 6.4 3 Sur 7 Sudoeste 0 1014 0 99
2018-12-08 03:00:00 6.6 0 Calma 4 Sur 0 1014 -0.3 98
2018-12-08 02:00:00 6.9 0 Calma 10 Sudoeste 0 1013.7 -0.4 98
2018-12-08 01:00:00 7.8 4 Sur 9 Sudeste 0 1014 -0.2 98
2018-12-08 00:00:00 7.8 0 Calma 4 Sur 0 1014.3 0.8 94
2018-12-07 23:00:00 9.2 0 Calma 5 Sur 0 1014.1 0.8 91
2018-12-07 22:00:00 10.5 2 Sur 4 Sur 0 1014.2 1.4 87
2018-12-07 21:00:00 11 0 Calma 7 Sudoeste 0 1013.5 1.2 77
2018-12-07 20:00:00 12.9 0 Calma 8 Oeste 0 1013.3 1.7 70
2018-12-07 19:00:00 14.6 4 Sudoeste 8 Sudoeste 0 1012.8 0.8 62
2018-12-07 18:00:00 17.1 0 Calma 4 Sudeste 0 1012.3 0 53
2018-12-07 17:00:00 19.6 4 Sudeste 7 Sudeste 0 1011.6 -1.6 50
2018-12-07 16:00:00 19.9 0 Calma 6 Sudeste 0 1012 -1.6 50
2018-12-07 15:00:00 18.6 0 Calma 15 Norte 0 1012.3 -1.6 57
2018-12-07 14:00:00 17.8 2 Norte 10 Norte 0 1013.2 -0.9 63
2018-12-07 13:00:00 15.8 3 Nordeste 14 Norte 0 1013.6 -0.4 69
2018-12-07 12:00:00 14 0 Calma -- -- 0 1013.9 0.3 77
2018-12-07 11:00:00 11.5 0 Calma 0 Calma 0 1014.1 1.2 95
2018-12-07 10:00:00 8.1 0 Calma 0 Calma 0 1014 1.6 99
2018-12-07 09:00:00 5 0 Calma -- -- 0.1 1013.6 1.4 99
2018-12-07 08:00:00 5.1 0 Calma -- -- 0 1012.9 0.8 99
2018-12-07 07:00:00 5.6 0 Calma -- -- 0 1012.4 0.1 99
2018-12-07 06:00:00 6.5 0 Calma -- -- 0 1012.2 0.1 99
2018-12-07 05:00:00 6.5 0 Calma -- -- 0 1012.1 0.2 99
2018-12-07 04:00:00 6.9 0 Calma 4 Sudoeste 0 1012.3 0.2 99
2018-12-07 03:00:00 7.5 0 Calma 3 Sur 0 1012.1 -0.1 99
2018-12-07 02:00:00 8.4 0 Calma -- -- 0 1011.9 -0.4 98
2018-12-07 01:00:00 9 0 Calma 2 Sudeste 0 1012.1 0.1 97
2018-12-07 00:00:00 9.6 0 Calma 4 Oeste 0 1012.2 0.4 95
2018-12-06 23:00:00 10.4 2 Sur 6 Sudeste 0 1012.3 0.9 92
2018-12-06 22:00:00 12 0 Calma 7 Noroeste 0 1012 0.9 81
2018-12-06 21:00:00 11.9 0 Calma 0 Calma 0 1011.8 0.9 76
2018-12-06 20:00:00 13.6 0 Calma 5 Oeste 0 1011.4 0.6 69
2018-12-06 19:00:00 15.7 0 Calma 5 Sudoeste 0 1011.1 0.3 60
2018-12-06 18:00:00 18.5 0 Calma 7 Norte 0 1010.9 -0.3 51
2018-12-06 17:00:00 21.9 4 Norte 10 Norte 0 1010.8 -1 44
2018-12-06 16:00:00 21.9 4 Nordeste 13 Nordeste 0 1010.8 -1.5 44
2018-12-06 15:00:00 20.5 8 Nordeste 14 Nordeste 0 1011.2 -2 47
2018-12-06 14:00:00 19.9 7 Nordeste 17 Nordeste 0 1011.8 -1.7 49
2018-12-06 13:00:00 18.1 3 Norte 12 Nordeste 0 1012.3 -0.9 59
2018-12-06 12:00:00 16.1 2 Nordeste 6 Nordeste 0 1013.2 0.3 71
2018-12-06 11:00:00 13.3 2 Norte 13 Norte 0 1013.5 0.8 82
2018-12-06 10:00:00 9.9 0 Calma 6 Norte 0 1013.2 1.1 99
2018-12-06 09:00:00 7.8 5 Norte 8 Norte 0 1012.9 0.8 99
2018-12-06 08:00:00 6.8 0 Calma 4 Noroeste 0 1012.7 0.8 99
2018-12-06 07:00:00 7.4 0 Calma 0 Calma 0 1012.1 0.1 99
2018-12-06 06:00:00 7.5 3 Norte 7 Norte 0 1012.1 0.7 99
2018-12-06 05:00:00 8.2 4 Noroeste 10 Noroeste 0 1011.9 0.5 99
2018-12-06 04:00:00 8.4 7 Noroeste 11 Noroeste 0 1012 0.3 99
2018-12-06 03:00:00 7.7 0 Calma 8 Sudeste 0 1011.4 -0.4 99
2018-12-06 02:00:00 9 4 Sur 6 Sur 0 1011.4 -0.2 99
2018-12-06 01:00:00 9.1 0 Calma 2 Sudeste 0 1011.7 0.5 96
2018-12-06 00:00:00 10.3 0 Calma 6 Sur 0 1011.8 0.9 95
2018-12-05 23:00:00 11 2 Sur 4 Sur 0 1011.6 1 92
2018-12-05 22:00:00 11.3 0 Calma 3 Sudeste 0 1011.2 1.2 84
2018-12-05 21:00:00 12.7 0 Calma 0 Calma 0 1010.9 1.2 75
2018-12-05 20:00:00 14.3 0 Calma -- -- 0 1010.6 1.4 67
2018-12-05 19:00:00 16 0 Calma -- -- 0 1010 1 60
2018-12-05 18:00:00 18.1 0 Calma -- -- 0 1009.7 0.6 54
2018-12-05 17:00:00 21.8 0 Calma -- -- 0 1009.2 -0.2 47
2018-12-05 16:00:00 21.8 0 Calma -- -- 0 1009 -0.8 46
2018-12-05 15:00:00 21.7 0 Calma -- -- 0 1009.1 -1.6 47
2018-12-05 14:00:00 21.3 0 Calma -- -- 0 1009.4 -1.6 49
2018-12-05 13:00:00 19.3 0 Calma -- -- 0 1009.8 -0.9 58
2018-12-05 12:00:00 16.3 0 Calma -- -- 0 1010.7 0.4 68
2018-12-05 11:00:00 13.5 0 Calma -- -- 0 1011 1.4 82
2018-12-05 10:00:00 11 0 Calma -- -- 0 1010.7 1.7 96
2018-12-05 09:00:00 8.2 0 Calma -- -- 0 1010.3 1.7 99
2018-12-05 08:00:00 6.8 0 Calma 3 Norte 0 1009.6 0.9 99
2018-12-05 07:00:00 6.4 0 Calma 2 Norte 0 1009 0.3 99
2018-12-05 06:00:00 7.3 0 Calma 0 Calma 0 1008.6 -0.1 99
2018-12-05 05:00:00 7 0 Calma -- -- 0 1008.7 0 98
2018-12-05 04:00:00 8.2 0 Calma 0 Calma 0 1008.7 -0.2 98
2018-12-05 03:00:00 8.2 0 Calma 5 Sudeste 0 1008.7 -0.3 95
2018-12-05 02:00:00 9.6 2 Sur 4 Sur 0 1008.7 0.1 95
2018-12-05 01:00:00 10.5 0 Calma -- -- 0 1008.9 0.6 94
2018-12-05 00:00:00 10.7 0 Calma 5 Sur 0 1009 1 92
2018-12-04 23:00:00 11.2 2 Sur 4 Sur 0 1008.6 1.1 89
2018-12-04 22:00:00 11.9 0 Calma 0 Calma 0 1008.3 1 84
2018-12-04 21:00:00 13.1 0 Calma 4 Sudeste 0 1008 1.3 76
2018-12-04 20:00:00 14.5 0 Calma -- -- 0 1007.5 0.7 68
2018-12-04 19:00:00 15.9 0 Calma -- -- 0 1007.3 0.5 60
2018-12-04 18:00:00 18.1 0 Calma -- -- 0 1006.7 -0.4 53
2018-12-04 17:00:00 22.1 0 Calma -- -- 0 1006.8 -0.9 44
2018-12-04 16:00:00 22 0 Calma -- -- 0 1006.8 -1.8 45
2018-12-04 15:00:00 21.1 0 Calma -- -- 0 1007.1 -2.2 49
2018-12-04 14:00:00 19.8 0 Calma -- -- 0 1007.7 -1.7 56
2018-12-04 13:00:00 18 0 Calma -- -- 0 1008.6 -0.4 58
2018-12-04 12:00:00 15.9 0 Calma -- -- 0 1009.3 1.2 67
2018-12-04 11:00:00 13.9 0 Calma -- -- 0 1009.4 1.9 74
2018-12-04 10:00:00 11.2 0 Calma -- -- 0 1009 2.2 85
2018-12-04 09:00:00 8.5 0 Calma 2 Noroeste 0 1008.1 1.8 99
2018-12-04 08:00:00 6.8 0 Calma 2 Noroeste 0 1007.5 0.9 99
2018-12-04 07:00:00 7.9 0 Calma 8 Sudoeste 0 1006.8 0.1 99
2018-12-04 06:00:00 7.3 0 Calma 6 Sudoeste 0 1006.3 -1.1 98
2018-12-04 05:00:00 7.8 0 Calma 4 Sudeste 0 1006.6 -0.8 98
2018-12-04 04:00:00 8.8 0 Calma 3 Este 0 1006.7 -1.3 98
2018-12-04 03:00:00 9.2 0 Calma 3 Sur 0 1007.4 -0.6 98
2018-12-04 02:00:00 8.7 0 Calma 4 Noroeste 0 1007.4 -0.6 97
2018-12-04 01:00:00 8.5 0 Calma 0 Calma 0 1008 -0.1 94
2018-12-04 00:00:00 10.2 0 Calma 3 Sur 0 1008 0 93
2018-12-03 23:00:00 11 0 Calma 3 Sudeste 0 1008 0 90
2018-12-03 22:00:00 11.5 0 Calma 2 Sudeste 0 1008.1 0.5 83
2018-12-03 21:00:00 12.3 0 Calma 0 Calma 0 1008 0.8 78
2018-12-03 20:00:00 12.7 0 Calma 5 Sudoeste 0 1008 0.9 72
2018-12-03 19:00:00 14.5 3 Noroeste 6 Noroeste 0 1007.6 0.6 64
2018-12-03 18:00:00 16.6 4 Noroeste 6 Noroeste 0 1007.2 0.2 56
2018-12-03 17:00:00 19.4 0 Calma 10 Norte 0 1007.1 0 50
2018-12-03 16:00:00 20 6 Norte 14 Norte 0 1007 -1.1 48
2018-12-03 15:00:00 19.7 7 Norte 15 Noroeste 0 1007 -2 50
2018-12-03 14:00:00 18.5 2 Norte 7 Nordeste 0 1007.1 -2.3 53
2018-12-03 13:00:00 17.4 0 Calma 6 Sudeste 0 1008.1 -1.2 60
2018-12-03 12:00:00 14.9 2 Norte 9 Norte 0 1009 0 67
2018-12-03 11:00:00 12.5 0 Calma 4 Nordeste 0 1009.4 0.8 76
2018-12-03 10:00:00 9.5 0 Calma 7 Norte 0 1009.3 0.7 92
2018-12-03 09:00:00 6.5 2 Noroeste 8 Noroeste 0 1009 0.4 99
2018-12-03 08:00:00 4.9 0 Calma 4 Nordeste 0 1008.6 -0.1 99
2018-12-03 07:00:00 5 0 Calma 3 Noroeste 0 1008.6 -0.4 99
2018-12-03 06:00:00 5.5 0 Calma -- -- 0 1008.6 -0.7 99
2018-12-03 05:00:00 5.8 0 Calma 2 Nordeste 0 1008.7 -0.8 99
2018-12-03 04:00:00 5.5 0 Calma -- -- 0 1009 -0.9 99
2018-12-03 03:00:00 6.4 0 Calma 0 Calma 0 1009.3 -0.9 98
2018-12-03 02:00:00 6.7 0 Calma 2 Norte 0 1009.5 -1 97
2018-12-03 01:00:00 7.4 0 Calma -- -- 0 1009.9 -0.6 96
2018-12-03 00:00:00 8.2 0 Calma 7 Sur 0 1010.2 -0.1 94
2018-12-02 23:00:00 8.8 0 Calma 3 Sur 0 1010.5 0.8 91
2018-12-02 22:00:00 9.5 0 Calma 0 Calma 0 1010.5 1.1 87
2018-12-02 21:00:00 10.3 0 Calma 0 Calma 0 1010.3 1.4 82
2018-12-02 20:00:00 11.2 0 Calma 4 Noroeste 0 1009.7 1.2 75
2018-12-02 19:00:00 13 0 Calma 2 Noroeste 0 1009.4 0.9 68
2018-12-02 18:00:00 14.8 0 Calma 6 Norte 0 1008.9 0.1 60
2018-12-02 17:00:00 16.8 2 Norte 9 Norte 0 1008.5 -0.7 53
2018-12-02 16:00:00 17.7 4 Nordeste 7 Este 0 1008.5 -1.8 49
2018-12-02 15:00:00 17 2 Sudeste 8 Sudoeste 0 1008.8 -2.4 54
2018-12-02 14:00:00 16.9 3 Sur 9 Norte 0 1009.2 -2.5 57
2018-12-02 13:00:00 14.8 2 Norte 10 Norte 0 1010.3 -0.9 63
2018-12-02 12:00:00 12.7 4 Norte 11 Norte 0 1011.2 -0.1 70
2018-12-02 11:00:00 10.6 0 Calma 2 Sudeste 0 1011.7 0.9 83
2018-12-02 10:00:00 7.5 0 Calma 0 Calma 0 1011.2 0.6 99
2018-12-02 09:00:00 5.6 0 Calma -- -- 0 1011.3 1 99
2018-12-02 08:00:00 4.7 0 Calma 4 Sudoeste 0 1010.8 0.9 99
2018-12-02 07:00:00 4.9 0 Calma 3 Noroeste 0 1010.6 0.3 99
2018-12-02 06:00:00 5.2 0 Calma 6 Noroeste 0 1010.3 0 98
2018-12-02 05:00:00 5.8 0 Calma 2 Sudoeste 0 1009.9 -0.2 98
2018-12-02 04:00:00 6.1 0 Calma 5 Sur 0 1010.3 -0.3 98
2018-12-02 03:00:00 6.4 3 Sur 5 Sur 0 1010.3 -0.4 96
2018-12-02 02:00:00 6.9 0 Calma 3 Sudeste 0 1010.1 -0.7 95
2018-12-02 01:00:00 7 0 Calma 5 Sudeste 0 1010.6 -0.1 92
2018-12-02 00:00:00 7.4 0 Calma 3 Sudoeste 0 1010.7 0.5 90
2018-12-01 23:00:00 8.4 0 Calma 5 Noroeste 0 1010.8 1.3 86
2018-12-01 22:00:00 9.1 4 Oeste 8 Sur 0 1010.7 1.2 83
2018-12-01 21:00:00 10.1 0 Calma 6 Noroeste 0 1010.2 0.5 73
2018-12-01 20:00:00 11.5 0 Calma -- -- 0 1009.5 0.4 67
2018-12-01 19:00:00 12.3 0 Calma 4 Oeste 0 1009.5 0.3 64
2018-12-01 18:00:00 14.6 0 Calma 8 Este 0 1009.7 0.7 57
2018-12-01 17:00:00 16.4 4 Este 9 Norte 0 1009.1 -0.8 46
2018-12-01 16:00:00 16.7 5 Nordeste 13 Nordeste 0 1009.2 -1.3 44
2018-12-01 15:00:00 15.9 5 Este 14 Norte 0 1009 -2.1 49
2018-12-01 14:00:00 15.3 3 Norte 12 Norte 0 1009.9 -1.9 54
2018-12-01 13:00:00 13.9 5 Norte 11 Norte 0 1010.5 -0.8 60
2018-12-01 12:00:00 12.4 3 Norte 10 Nordeste 0 1011.1 0.6 71
2018-12-01 11:00:00 10.1 3 Norte 8 Norte 0 1011.8 1.6 79
2018-12-01 10:00:00 7.9 0 Calma 5 Nordeste 0 1011.3 2.2 99
2018-12-01 09:00:00 5 0 Calma 0 Calma 0 1010.5 1 99
2018-12-01 08:00:00 4.3 0 Calma 3 Norte 0 1010.2 0.7 99
2018-12-01 07:00:00 4 0 Calma 3 Norte 0 1009.1 -0.1 99
2018-12-01 06:00:00 5.2 0 Calma 6 Sudoeste 0 1009.5 0.5 99
2018-12-01 05:00:00 5.9 0 Calma 5 Norte 0 1009.5 0 99
2018-12-01 04:00:00 5.4 3 Norte 5 Norte 0 1009.2 -0.9 98
2018-12-01 03:00:00 6 0 Calma 6 Sudoeste 0 1009 -1 96
2018-12-01 02:00:00 6.4 0 Calma 5 Norte 0 1009.5 -0.1 93
2018-12-01 01:00:00 7.2 0 Calma 4 Noroeste 0 1010.1 0.6 92
2018-12-01 00:00:00 7.4 0 Calma 8 Sudoeste 0 1010 1.3 88
2018-11-30 23:00:00 8.1 0 Calma 11 Norte 0 1009.6 1.5 86
2018-11-30 22:00:00 8.8 9 Noroeste 10 Noroeste 0 1009.5 1.9 82
2018-11-30 21:00:00 9.3 6 Noroeste 10 Noroeste 0 1008.7 1.5 77
2018-11-30 20:00:00 10.4 8 Noroeste 14 Noroeste 0 1008.1 1.2 71
2018-11-30 19:00:00 11.8 7 Noroeste 10 Noroeste 0 1007.6 1.2 62
2018-11-30 18:00:00 13.8 7 Norte 12 Norte 0 1007.2 0.6 53
2018-11-30 17:00:00 16.8 6 Norte 17 Norte 0 1006.9 -0.1 44
2018-11-30 16:00:00 16.6 9 Norte 23 Norte 0 1006.4 -0.9 45
2018-11-30 15:00:00 16.6 11 Norte 22 Norte 0 1006.6 -1.3 49
2018-11-30 14:00:00 16.1 10 Noroeste 21 Noroeste 0 1007 -0.7 52
2018-11-30 13:00:00 15.5 12 Norte 22 Norte 0 1007.3 0.1 59
2018-11-30 12:00:00 15.3 7 Norte 23 Norte 0 1007.9 1.6 68
2018-11-30 11:00:00 13.8 17 Noroeste 28 Norte 0 1007.7 2.4 80
2018-11-30 10:00:00 12.7 9 Norte 17 Norte 0 1007.2 2.5 99
2018-11-30 09:00:00 12.5 8 Noroeste 13 Norte 0 1006.3 1.9 99
2018-11-30 08:00:00 12.2 0 Calma 10 Norte 0.2 1005.3 0.8 99
2018-11-30 07:00:00 12.3 4 Noroeste 7 Norte 0.6 1004.7 0 99
2018-11-30 06:00:00 12.3 5 Norte 8 Noroeste 1.6 1004.4 -0.7 99
2018-11-30 05:00:00 12.5 0 Calma 6 Sur 0.2 1004.5 -1.1 95
2018-11-30 04:00:00 12.6 5 Sur 8 Sur 0 1004.7 -1.3 95
2018-11-30 03:00:00 12.3 5 Sudoeste 8 Sudoeste 0 1005.1 -1.2 95
2018-11-30 02:00:00 12.6 7 Sudoeste 11 Sudoeste 0 1005.6 -0.9 95
2018-11-30 01:00:00 12 4 Sur 9 Sur 0 1006 -0.5 96
2018-11-30 00:00:00 12.3 8 Sudoeste 12 Sudoeste 0 1006.3 -0.5 96
2018-11-29 23:00:00 12.2 5 Sudeste 9 Sur 0 1006.5 0.5 96
2018-11-29 22:00:00 12 6 Sur 9 Sudoeste 0 1006.5 0.6 95
2018-11-29 21:00:00 12.3 5 Sudoeste 8 Sudoeste 0 1006.8 1.5 91
2018-11-29 20:00:00 12.1 0 Calma 5 Oeste 0 1006 0.7 88
2018-11-29 19:00:00 13 5 Noroeste 13 Oeste 0 1005.9 0.7 85
2018-11-29 18:00:00 13.8 6 Oeste 15 Oeste 0 1005.3 -0.6 79
2018-11-29 17:00:00 15.9 10 Oeste 19 Sudoeste 0 1005.3 -1.3 70
2018-11-29 16:00:00 17.1 12 Sudoeste 19 Sudoeste 0 1005.2 -1.7 66
2018-11-29 15:00:00 16.2 9 Oeste 20 Noroeste 0 1005.9 -1.6 66
2018-11-29 14:00:00 16.2 13 Oeste 20 Oeste 0 1006.6 -1.5 66
2018-11-29 13:00:00 15.3 3 Norte 8 Norte 0 1006.9 -1.2 61
2018-11-29 12:00:00 12.6 0 Calma -- -- 0 1007.5 -0.5 68
2018-11-29 11:00:00 9.4 0 Calma 5 Este 0 1008.1 0.3 81
2018-11-29 10:00:00 7.1 0 Calma 0 Calma 0.1 1008.1 0.4 93
2018-11-29 09:00:00 4.7 0 Calma 3 Sur 0 1008 0.4 99
2018-11-29 08:00:00 3.3 0 Calma 4 Este 0 1007.8 0.5 99
2018-11-29 07:00:00 3.1 0 Calma 4 Sur 0 1007.7 0.7 99
2018-11-29 06:00:00 2.7 0 Calma 6 Sudoeste 0 1007.6 0.7 99
2018-11-29 05:00:00 3.8 0 Calma 3 Nordeste 0 1007.3 0.1 99
2018-11-29 04:00:00 4.2 0 Calma 6 Sudeste 0 1007 -0.9 99
2018-11-29 03:00:00 5 0 Calma 3 Sur 0 1006.9 -1.3 99
2018-11-29 02:00:00 5.1 0 Calma 8 Sur 0 1007.2 -0.9 99
2018-11-29 01:00:00 5.8 0 Calma 3 Noroeste 0 1007.9 -0.1 97
2018-11-29 00:00:00 6.2 2 Noroeste 4 Noroeste 0 1008.2 0.3 96
2018-11-28 23:00:00 7.3 0 Calma 4 Sudoeste 0 1008.1 -0.1 93
2018-11-28 22:00:00 8 0 Calma 5 Sudeste 0 1008 0.2 88
2018-11-28 21:00:00 9.2 0 Calma 0 Calma 0 1007.9 0.4 82
2018-11-28 13:00:00 14.8 2 Este 10 Este 0 1009.2 -1.6 59
2018-11-28 12:00:00 12.3 3 Nordeste 10 Nordeste 0 1010.1 -0.1 66
2018-11-28 11:00:00 10.2 0 Calma 5 Este 0 1010.7 0.7 86
2018-11-28 10:00:00 7.2 0 Calma 3 Este 0 1010.8 1.3 98
2018-11-28 09:00:00 4.8 0 Calma 3 Sudeste 0 1010.2 0.9 99
2018-11-28 08:00:00 4.3 0 Calma 5 Sudeste 0 1010 1.2 99
2018-11-28 07:00:00 4.2 0 Calma -- -- 0 1009.5 0.9 99
2018-11-28 06:00:00 4.2 0 Calma 6 Norte 0 1009.3 0.9 99
2018-11-28 05:00:00 4.8 3 Noroeste 5 Noroeste 0 1008.8 0.1 99
2018-11-28 04:00:00 5 0 Calma 4 Norte 0 1008.6 -0.3 98
2018-11-28 03:00:00 5.6 0 Calma 3 Nordeste 0 1008.4 -0.9 98
2018-11-28 02:00:00 6.3 0 Calma 5 Sudeste 0 1008.7 -0.5 97
2018-11-28 01:00:00 6.6 0 Calma 5 Sudeste 0 1008.9 -0.4 96
2018-11-28 00:00:00 7 0 Calma 3 Sudoeste 0 1009.3 0.2 95
2018-11-27 23:00:00 7.4 0 Calma 4 Norte 0 1009.2 0.2 92
2018-11-27 22:00:00 8 2 Norte 4 Norte 0 1009.3 0.5 90
2018-11-27 21:00:00 9.6 0 Calma 0 Calma 0 1009.1 0.7 84
2018-11-27 20:00:00 10.9 0 Calma 2 Nordeste 0 1009 0.8 76
2018-11-27 19:00:00 12.5 0 Calma 7 Este 0 1008.8 0.8 68
2018-11-27 18:00:00 14 3 Nordeste 13 Este 0 1008.4 0.3 62
2018-11-27 17:00:00 16 6 Nordeste 15 Este 0 1008.2 -0.4 54
2018-11-27 16:00:00 16.7 5 Nordeste 15 Nordeste 0 1008 -1.3 54
2018-11-27 15:00:00 16 8 Este 15 Este 0 1008.1 -2 56
2018-11-27 14:00:00 15.5 10 Este 17 Este 0 1008.6 -1.5 61
2018-11-27 13:00:00 14.2 10 Este 17 Este 0 1009.3 -0.6 61
2018-11-27 12:00:00 12.6 7 Este 12 Este 0 1010.1 0.4 74
2018-11-27 11:00:00 9.9 7 Nordeste 10 Nordeste 0 1010.1 0.2 90
2018-11-27 10:00:00 7.2 2 Este 9 Este 0 1009.9 0 99
2018-11-27 09:00:00 6 2 Sudeste 4 Sudeste 0 1009.7 0 99
2018-11-27 08:00:00 5.6 0 Calma 3 Sur 0 1009.9 0.4 99
2018-11-27 07:00:00 5.5 0 Calma 6 Sur 0 1009.9 0.3 99
2018-11-27 06:00:00 5.8 0 Calma 6 Sudeste 0 1009.7 0.2 99
2018-11-27 05:00:00 6.3 0 Calma 4 Sudoeste 0 1009.5 0.2 98
2018-11-27 04:00:00 6.5 2 Sur 5 Sudeste 0 1009.6 0.2 96
2018-11-27 03:00:00 6.7 0 Calma 6 Noroeste 0 1009.5 0.5 94
2018-11-27 02:00:00 7.2 3 Sudeste 7 Sudeste 0 1009.3 0.6 90
2018-11-27 01:00:00 8.4 0 Calma 9 Noroeste 0 1009.4 0.8 86
2018-11-27 00:00:00 9.2 3 Norte 12 Noroeste 0 1009 0.7 82
2018-11-26 23:00:00 9.6 10 Noroeste 14 Noroeste 0 1008.7 1.1 81
2018-11-26 22:00:00 10.9 4 Noroeste 12 Noroeste 0 1008.6 1.7 77
2018-11-26 21:00:00 11.4 2 Norte 17 Noroeste 0 1008.3 2.2 74
2018-11-26 20:00:00 11.5 12 Oeste 15 Oeste 0 1007.6 2 72
2018-11-26 19:00:00 11.5 13 Noroeste 16 Noroeste 0 1006.9 1.9 71
2018-11-26 18:00:00 12.9 12 Noroeste 18 Noroeste 0 1006.1 1.2 66
2018-11-26 17:00:00 15.3 14 Noroeste 24 Oeste 0 1005.6 0.6 56
2018-11-26 16:00:00 15.5 14 Oeste 26 Oeste 0 1005 -0.5 57
2018-11-26 15:00:00 15.2 17 Oeste 29 Oeste 0 1004.9 -1.1 59
2018-11-26 14:00:00 15.3 18 Oeste 29 Oeste 0 1005 -1.2 62
2018-11-26 13:00:00 13.8 16 Oeste 30 Oeste 0 1005.5 0.2 65
2018-11-26 12:00:00 13.7 18 Oeste 28 Oeste 0 1006 1.3 66
2018-11-26 11:00:00 12.6 13 Oeste 27 Sudoeste 0 1006.2 2.1 76
2018-11-26 10:00:00 11.3 16 Oeste 27 Oeste 0 1005.3 2 83
2018-11-26 09:00:00 9.2 14 Oeste 20 Sudoeste 0 1004.7 2 87
2018-11-26 08:00:00 8.4 10 Oeste 22 Sudoeste 0 1004.1 2.1 85
2018-11-26 07:00:00 8.7 15 Oeste 19 Sudoeste 0 1003.3 1.7 83
2018-11-26 06:00:00 9 8 Oeste 16 Oeste 0 1002.7 1.7 82
2018-11-26 05:00:00 10 10 Oeste 21 Oeste 0 1002 2.6 79
2018-11-26 04:00:00 10.5 14 Oeste 27 Noroeste 0 1001.6 3.5 80
2018-11-26 03:00:00 12.1 18 Noroeste 35 Noroeste 0 1001 3.4 79
2018-11-26 02:00:00 14.2 25 Oeste 42 Oeste 0 999.4 1.9 85
2018-11-26 01:00:00 15.7 27 Oeste 50 Oeste 0.7 998.1 -0.1 97
2018-11-26 00:00:00 16 29 Oeste 56 Sudoeste 1.9 997.6 -1.4 99
2018-11-25 23:00:00 15 31 Sudoeste 47 Sudoeste 2.2 997.5 -1.5 99
2018-11-25 22:00:00 14.1 24 Sudoeste 43 Sudoeste 2.7 998.2 -0.8 99
2018-11-25 21:00:00 14.1 26 Sudoeste 45 Sudoeste 1.4 999 0.2 95
2018-11-25 20:00:00 15.1 22 Sudoeste 42 Sudoeste 0 999 0.4 91
2018-11-25 19:00:00 15.4 26 Sudoeste 44 Sudoeste 0 999 0.4 87
2018-11-25 18:00:00 15.9 23 Oeste 45 Sudoeste 0 998.8 -0.2 84
2018-11-25 17:00:00 16.8 22 Sudoeste 39 Sudoeste 0 998.6 -0.9 83
2018-11-25 16:00:00 17.2 21 Sudoeste 41 Sudoeste 0 998.6 -1.5 79
2018-11-25 15:00:00 17.5 20 Sudoeste 41 Sudoeste 0 999 -2.1 80
2018-11-25 14:00:00 17.1 25 Sudoeste 38 Sudoeste 0.2 999.5 -- 89
2018-11-25 13:00:00 16.2 25 Sudoeste 38 Sudoeste 0 1000.1 -0.9 83
2018-11-25 12:00:00 16.2 25 Sudoeste 36 Sudoeste 0 1001.1 0.9 83
2018-11-25 11:00:00 -- 20 Sudoeste 33 Sudoeste 0 -- -- --
2018-11-25 10:00:00 15.1 17 Sudoeste 30 Sudoeste 0 1001 1.2 95
2018-11-25 09:00:00 13.7 17 Sudoeste 23 Sudoeste 0.1 1000.2 0.4 99
2018-11-25 08:00:00 13 14 Sudoeste 22 Sudoeste 0.2 1000.1 0 99
2018-11-25 07:00:00 12.9 14 Sudoeste 32 Sudoeste 0.5 999.8 0.1 99
2018-11-25 06:00:00 12.9 17 Sudoeste 33 Sudoeste 1.5 999.8 -0.3 98
2018-11-25 05:00:00 13.3 19 Sudoeste 36 Sudoeste 0.1 1000.1 -0.5 91
2018-11-25 04:00:00 11.8 3 Sudeste 5 Sudeste 0.1 999.7 -1.5 91
2018-11-25 03:00:00 11.8 3 Sudeste 5 Sudeste 0 1000.1 -1.8 91
2018-11-25 02:00:00 11.5 4 Sudeste 8 Sur 0 1000.6 -1.8 91
2018-11-25 01:00:00 11.4 4 Sudeste 7 Sur 0 1001.2 -1.4 92
2018-11-25 00:00:00 11.1 6 Sudeste 9 Sudeste 0 1001.9 -0.5 93
2018-11-24 23:00:00 11.5 0 Calma 5 Sudeste 0 1002.4 -0.2 91
2018-11-24 22:00:00 12.3 4 Sudeste 7 Sur 0 1002.6 0 90
2018-11-24 21:00:00 12.9 3 Sur 5 Sur 0 1002.4 0.3 90
2018-11-24 20:00:00 13 2 Sudeste 3 Sudeste 0 1002.6 0.3 87
2018-11-24 19:00:00 13.4 3 Sudoeste 5 Sudoeste 0 1002.6 0.3 80
2018-11-24 18:00:00 14.2 4 Sudoeste 11 Oeste 0 1002.1 -0.6 66
2018-11-24 17:00:00 16.2 6 Oeste 18 Sudoeste 0 1002.3 -0.9 57
2018-11-24 16:00:00 16.7 9 Oeste 16 Sudoeste 0 1002.3 -1.8 53
2018-11-24 15:00:00 15.5 9 Oeste 15 Noroeste 0 1002.7 -2 59
2018-11-24 14:00:00 15.3 7 Oeste 15 Oeste 0 1003.2 -1.8 64
2018-11-24 13:00:00 14.4 0 Calma 6 Oeste 0 1004.1 -0.8 73
2018-11-24 12:00:00 12.2 0 Calma 6 Sudeste 0 1004.7 0.2 84
2018-11-24 11:00:00 10.6 0 Calma 4 Sudeste 0 1005 1.5 90
2018-11-24 10:00:00 8.5 0 Calma 3 Este 0 1004.9 2.1 99
2018-11-24 09:00:00 6.8 0 Calma 3 Sur 0 1004.5 1.8 99
2018-11-24 08:00:00 5.6 0 Calma 6 Sudeste 0 1003.5 0.7 99
2018-11-24 07:00:00 6 0 Calma 3 Sudeste 0 1002.8 -0.2 99
2018-11-24 06:00:00 6.4 0 Calma 3 Sur 0 1002.7 -0.2 99
2018-11-24 05:00:00 6.5 0 Calma 5 Sudeste 0 1002.8 -0.6 99
2018-11-24 04:00:00 6.9 3 Sur 8 Sur 0 1003 -0.9 99
2018-11-24 03:00:00 7.6 4 Sur 6 Sudeste 0 1002.9 -0.9 99
2018-11-24 02:00:00 7.9 0 Calma 5 Sudeste 0 1003.4 -0.1 98
2018-11-24 01:00:00 8.4 4 Sudeste 6 Sudeste 0 1003.9 0.6 98
2018-11-24 00:00:00 9.1 3 Sudeste 4 Sudeste 0 1003.8 0.7 96
2018-11-23 23:00:00 9.4 3 Sur 7 Sudeste 0 1003.5 1 93
2018-11-23 22:00:00 10.3 0 Calma 6 Sudeste 0 1003.3 1.2 87
2018-11-23 21:00:00 11.3 0 Calma 12 Oeste 0 1003.1 1.7 81
2018-11-23 20:00:00 12.1 6 Oeste 10 Oeste 0 1002.5 1.4 78
2018-11-23 19:00:00 12.8 3 Oeste 6 Oeste 0 1002.1 1.1 76
2018-11-23 18:00:00 14.7 0 Calma 6 Este 0 1001.4 0.3 63
2018-11-23 17:00:00 16 3 Este 7 Nordeste 0 1001.1 -0.2 56
2018-11-23 16:00:00 16.3 4 Nordeste 9 Este 0 1001 -1.2 58
2018-11-23 15:00:00 16.1 0 Calma 6 Oeste 0 1001.1 -1.8 60
2018-11-23 14:00:00 14.6 3 Nordeste 8 Este 0 1001.3 -1.4 72
2018-11-23 13:00:00 14 2 Este 9 Sur 0 1002.2 -0.2 83
2018-11-23 12:00:00 13.3 6 Este 10 Sudeste 0 1002.9 1.1 87
2018-11-23 11:00:00 13.1 0 Calma 7 Sur 0 1002.7 1.6 98
2018-11-23 10:00:00 12.3 3 Sudoeste 14 Sudoeste 0 1002.4 2.1 99
2018-11-23 09:00:00 10.9 3 Sur 7 Sudoeste 0 1001.8 2.3 99
2018-11-23 08:00:00 10.7 5 Sudoeste 10 Noroeste 0.1 1001.1 1.8 99
2018-11-23 07:00:00 10.8 8 Noroeste 15 Norte 0 1000.3 1.3 99
2018-11-23 06:00:00 11.3 0 Calma 15 Noroeste 0 999.5 0.6 99
2018-11-23 05:00:00 11.2 0 Calma 8 Sudeste 0.1 999.3 0.2 99
2018-11-23 04:00:00 11.4 2 Sudeste 3 Sudeste 0.8 999 -0.2 99
2018-11-23 03:00:00 11.4 2 Norte 6 Noroeste 2 998.9 -0.6 99
2018-11-23 02:00:00 11.4 4 Este 9 Nordeste 1.5 999.1 -0.7 99
2018-11-23 01:00:00 11.5 4 Nordeste 10 Nordeste 1.5 999.2 -0.6 99
2018-11-23 00:00:00 11.9 2 Nordeste 9 Norte 2.3 999.5 -0.3 99
2018-11-22 23:00:00 11.9 0 Calma 6 Norte 4.2 999.8 -0.3 99
2018-11-22 22:00:00 12.1 0 Calma 6 Nordeste 2 999.8 -0.2 99
2018-11-22 21:00:00 12.4 0 Calma 6 Nordeste 0.6 999.8 0 98
2018-11-22 20:00:00 12.4 0 Calma 2 Este 0.6 1000.1 0.2 96
2018-11-22 19:00:00 12.6 0 Calma 6 Este 1.2 1000 0.1 93
2018-11-22 18:00:00 12.6 6 Este 9 Este 0.9 999.8 0 91
2018-11-22 17:00:00 13.9 3 Nordeste 5 Nordeste 0.4 999.9 -0.6 87
2018-11-22 16:00:00 14.3 0 Calma 5 Norte 0 999.9 -1.2 88
2018-11-22 15:00:00 14.5 0 Calma 7 Este 0 999.8 -1.7 88
2018-11-22 14:00:00 14.2 5 Norte 10 Norte 0 1000.5 -1.3 91
2018-11-22 13:00:00 13.3 0 Calma 9 Sudeste 0.1 1001.1 -0.6 99
2018-11-22 12:00:00 12.6 5 Sudeste 8 Sur 0.1 1001.5 0 99
2018-11-22 11:00:00 12 2 Sur 6 Sudeste 0.2 1001.8 0.5 99
2018-11-22 10:00:00 11.5 4 Sudeste 9 Sudeste 0.3 1001.7 0.6 99
2018-11-22 09:00:00 11 7 Sur 10 Sudeste 0.7 1001.5 0.5 99
2018-11-22 08:00:00 10.9 0 Calma 13 Sudeste 0.4 1001.3 0.2 99
2018-11-22 07:00:00 10.8 7 Sudeste 13 Sur 5.3 1001.1 -0.3 99
2018-11-22 06:00:00 10.6 0 Calma 5 Sudeste 0 1001 -0.5 99
2018-11-22 05:00:00 10.4 4 Sur 9 Sudeste 0 1001.1 -0.5 99
2018-11-22 04:00:00 10.5 5 Sudeste 9 Sudeste 0 1001.4 -0.4 99
2018-11-22 03:00:00 10.4 2 Sur 4 Sudeste 0 1001.5 -0.4 99
2018-11-22 02:00:00 10.6 4 Sudeste 7 Sudeste 0 1001.6 -0.3 99
2018-11-22 01:00:00 10.9 0 Calma 8 Sudeste 0 1001.8 0 99
2018-11-22 00:00:00 11.3 6 Sudoeste 10 Sudoeste 0 1001.9 0.5 98
2018-11-21 23:00:00 11.7 9 Sudoeste 13 Sudoeste 0 1001.9 0.8 98
2018-11-21 22:00:00 11.1 8 Sudoeste 12 Sudoeste 0 1001.8 1.7 98
2018-11-21 21:00:00 11.5 7 Sudoeste 9 Sudoeste 0 1001.4 1.9 98
2018-11-21 20:00:00 11.7 7 Sudoeste 9 Sudoeste 0 1001.1 1.9 97
2018-11-21 19:00:00 12.1 6 Sur 11 Sur 0 1000.1 1.4 93
2018-11-21 18:00:00 13.6 8 Sudoeste 12 Sudoeste 0 999.5 0.9 91
2018-11-21 17:00:00 13.7 7 Sur 9 Sur 0.5 999.2 0.3 94
2018-11-21 16:00:00 13.8 0 Calma 8 Sudeste 0.2 998.7 -0.4 92
2018-11-21 15:00:00 13.5 5 Sudeste 8 Sudeste 0.9 998.6 -0.9 88
2018-11-21 14:00:00 13.2 7 Noroeste 15 Norte 2.3 998.9 -0.4 85
2018-11-21 13:00:00 15 10 Sur 14 Sur 0 999.1 0.2 83
2018-11-21 12:00:00 14.8 4 Sur 10 Sur 0 999.5 1.1 90
2018-11-21 11:00:00 13.4 0 Calma 5 Sudeste 0 999.3 1.7 99
2018-11-21 10:00:00 12.1 0 Calma 4 Sudeste 0.1 998.9 1.5 99
2018-11-21 09:00:00 11.5 0 Calma 3 Sur 0 998.4 1.3 99
2018-11-21 08:00:00 11.1 0 Calma 8 Sudoeste 0 997.6 0.7 99
2018-11-21 07:00:00 11.7 6 Sudoeste 9 Sudoeste 0 997.4 0.5 99
2018-11-21 06:00:00 11.6 7 Sudoeste 11 Sudoeste 0 997.1 0.1 99
2018-11-21 05:00:00 11.2 8 Sur 11 Sur 0 996.9 -0.2 99
2018-11-21 04:00:00 11.3 9 Sur 12 Sur 0 996.9 -0.4 99
2018-11-21 03:00:00 10.7 9 Sur 11 Sudoeste 0 997 0.3 99
2018-11-21 02:00:00 10.8 4 Sudoeste 14 Sudoeste 0 997.1 0.7 96
2018-11-21 01:00:00 11.9 10 Sudoeste 17 Oeste 0 997.3 1.3 95
2018-11-21 00:00:00 12.1 12 Sudoeste 21 Sudoeste 0 996.7 1.2 94
2018-11-20 23:00:00 12.3 12 Sudoeste 19 Sudoeste 0 996.4 1.6 94
2018-11-20 22:00:00 12.7 11 Sudoeste 21 Oeste 0 996 1.9 94
2018-11-20 21:00:00 12.4 10 Sudoeste 28 Sudoeste 0 995.5 2.2 94
2018-11-20 20:00:00 12.8 21 Sudoeste 33 Sudoeste 0 994.8 2 91
2018-11-20 19:00:00 13.1 21 Sudoeste 31 Oeste 0 994.1 1.6 89
2018-11-20 18:00:00 13.6 17 Oeste 44 Sudoeste 0 993.3 1.4 83
2018-11-20 17:00:00 14.8 18 Sudoeste 35 Sudoeste 0 992.8 1 72
2018-11-20 16:00:00 15.8 23 Oeste 42 Sudoeste 0 992.5 0.7 64
2018-11-20 15:00:00 16.6 20 Oeste 48 Sudoeste 0 991.9 0.4 66
2018-11-20 14:00:00 15.2 21 Oeste 36 Sudoeste 0 991.8 1.6 81
2018-11-20 13:00:00 14.6 22 Oeste 38 Oeste 0.1 991.8 2.8 89
2018-11-20 12:00:00 13.4 21 Oeste 31 Oeste 0 991.5 3 99
2018-11-20 11:00:00 12.7 23 Oeste 37 Sudoeste 0.3 990.2 2.1 99
2018-11-20 10:00:00 12.1 2 Sur 8 Sur 0.8 989 0.5 99
2018-11-20 09:00:00 11.2 0 Calma 6 Sudeste 1 988.5 -0.3 99
2018-11-20 08:00:00 10.8 0 Calma 9 Este 0.7 988.1 -0.7 99
2018-11-20 07:00:00 11 5 Sudeste 11 Este 2.1 988.5 -0.7 99
2018-11-20 06:00:00 11.2 3 Sudeste 12 Noroeste 3.8 988.8 -0.9 99
2018-11-20 05:00:00 11.3 4 Noroeste 8 Noroeste 2.1 988.8 -1.2 99
2018-11-20 04:00:00 10.9 2 Sudeste 8 Sur 0.1 989.2 -1.3 98
2018-11-20 03:00:00 11 6 Sudoeste 12 Sur 0 989.7 -1.1 96
2018-11-20 02:00:00 10.4 10 Sur 15 Sudoeste 0 990 -0.6 95
2018-11-20 01:00:00 11.4 11 Sudoeste 15 Sudoeste 0 990.5 -0.1 94
2018-11-20 00:00:00 12.5 10 Sudoeste 15 Sudoeste 0 990.8 0.5 91
2018-11-19 23:00:00 13.3 13 Sudoeste 20 Sudoeste 0 990.6 0.5 91
2018-11-19 22:00:00 13.3 14 Sudoeste 19 Sudoeste 0 990.6 1 91
2018-11-19 21:00:00 13.3 8 Oeste 23 Oeste 0 990.3 1.4 91
2018-11-19 20:00:00 13.4 13 Oeste 22 Oeste 0.1 990.1 1.5 91
2018-11-19 19:00:00 13.8 6 Oeste 15 Oeste 0.5 989.6 1.5 90
2018-11-19 18:00:00 14.4 10 Oeste 25 Oeste 0 988.9 0.8 87
2018-11-19 17:00:00 14.7 17 Oeste 27 Oeste 0 988.6 0.4 83
2018-11-19 16:00:00 15.2 16 Oeste 24 Oeste 0 988.1 -0.6 80
2018-11-19 15:00:00 15.7 13 Oeste 23 Oeste 0 988.1 -0.4 80
2018-11-19 14:00:00 15.2 11 Oeste 20 Oeste 0 988.2 -0.4 87
2018-11-19 13:00:00 14 11 Oeste 21 Oeste 0 988.7 0.4 98
2018-11-19 12:00:00 12.4 14 Oeste 25 Oeste 0.1 988.5 0.6 99
2018-11-19 11:00:00 12.2 15 Sudoeste 24 Sudoeste 3.3 988.6 1.2 99
2018-11-19 10:00:00 12 10 Sudoeste 17 Sudoeste 2.1 988.3 1.4 99
2018-11-19 09:00:00 11.9 6 Sur 9 Sur 0.4 987.9 1.3 99
2018-11-19 08:00:00 11.8 0 Calma 13 Sudoeste 0.3 987.4 1.2 99
2018-11-19 07:00:00 11.8 6 Sudoeste 11 Sudoeste 0 986.9 0.7 99
2018-11-19 06:00:00 11.8 9 Sudoeste 14 Sudoeste 0.2 986.6 0.3 99
2018-11-19 05:00:00 12 2 Sudeste 5 Sudeste 0 986.2 0.3 98
2018-11-19 04:00:00 12.1 2 Sudeste 8 Este 0 986.2 -0.2 98
2018-11-19 03:00:00 12.2 3 Nordeste 6 Nordeste 0 986.3 -0.3 98
2018-11-19 02:00:00 12.3 4 Este 6 Este 0 985.9 -0.6 98
2018-11-19 01:00:00 12.1 0 Calma 3 Este 0 986.4 -0.1 98
2018-11-19 00:00:00 12.2 0 Calma 8 Sudeste 0 986.6 0 98
2018-11-18 23:00:00 12 3 Sudeste 15 Sudeste 0 986.5 -0.1 98
2018-11-18 22:00:00 12.3 10 Este 16 Sudeste 0 986.5 -0.3 98
2018-11-18 21:00:00 11.8 8 Sudeste 12 Sudeste 0 986.6 -0.2 99
2018-11-18 20:00:00 12.1 8 Este 15 Este 0 986.6 -0.6 97
2018-11-18 19:00:00 12.9 9 Este 12 Sudeste 0 986.8 -0.1 97
2018-11-18 18:00:00 13.6 6 Nordeste 11 Nordeste 0 986.8 -0.4 98
2018-11-18 17:00:00 13.7 5 Nordeste 13 Noroeste 6.7 987.2 -0.6 98
2018-11-18 16:00:00 14.3 8 Este 19 Este 0 986.9 -1.7 91
2018-11-18 15:00:00 14.7 14 Este 21 Este 0 987.2 -2.4 97
2018-11-18 14:00:00 13.7 7 Este 15 Este 0.2 987.8 -0.6 99
2018-11-18 13:00:00 12.9 10 Este 16 Sudeste 5 988.6 0 99
2018-11-18 12:00:00 13.4 8 Sudoeste 30 Sudoeste 8.1 989.6 0.5 97
2018-11-18 11:00:00 14.3 5 Nordeste 10 Nordeste 0 988.4 -0.7 95
2018-11-18 10:00:00 13.3 2 Norte 7 Norte 2.4 988.6 -0.2 95
2018-11-18 09:00:00 13.2 0 Calma 7 Sur 2.5 989.1 0.1 87
2018-11-18 08:00:00 13.5 5 Sudeste 9 Sudeste 0 989.1 -0.4 83
2018-11-18 07:00:00 13.3 5 Este 13 Sudeste 0 988.8 -1.3 83
2018-11-18 06:00:00 13.7 3 Sudeste 13 Este 0 989 -2.3 78
2018-11-18 05:00:00 14 5 Sudeste 9 Este 0 989.5 -2.3 77
2018-11-18 04:00:00 14 2 Este 8 Sudeste 0 990.1 -2.9 78
2018-11-18 03:00:00 14.2 0 Calma 21 Sudeste 0 991.3 -2.4 78
2018-11-18 02:00:00 15.4 17 Sudeste 30 Sudeste 0 991.8 -2.3 70
2018-11-18 01:00:00 15.3 9 Sudeste 17 Sudeste 0 993 -1.2 76
2018-11-18 00:00:00 15 4 Sudoeste 10 Sur 0 993.7 -1.1 79
2018-11-17 23:00:00 14.8 7 Sur 9 Sur 0 994.1 -0.6 80
2018-11-17 22:00:00 15 2 Este 7 Este 0 994.2 -0.8 78
2018-11-17 21:00:00 15.2 3 Sudoeste 9 Sudeste 0 994.8 -0.6 76
2018-11-17 20:00:00 15.9 9 Sur 13 Sur 0 994.7 -1.1 72
2018-11-17 19:00:00 16.4 4 Sur 13 Sur 0 995 -0.9 68
2018-11-17 18:00:00 17.7 10 Sur 18 Sur 0 995.4 -0.6 61
2018-11-17 17:00:00 18.9 14 Sur 23 Sudoeste 0 995.8 -1.1 56
2018-11-17 16:00:00 20.1 14 Sur 28 Sudeste 0 995.9 -2.1 51
2018-11-17 15:00:00 20.9 21 Sudeste 30 Sudeste 0 996 -3.2 49
2018-11-17 14:00:00 20.9 20 Sudeste 30 Sudeste 0 996.9 -2.9 49
2018-11-17 13:00:00 19 6 Este 13 Este 0 998 -2 60
2018-11-17 12:00:00 18.1 6 Este 12 Este 0 999.2 -0.3 66
2018-11-17 11:00:00 16.1 5 Este 10 Este 0 999.8 0.6 71
2018-11-17 10:00:00 14.3 5 Este 7 Este 0 1000 0.8 83
2018-11-17 09:00:00 11.5 0 Calma 11 Sudeste 0 999.5 0.4 97
2018-11-17 08:00:00 10.4 3 Sudeste 7 Sudeste 0 999.2 -0.2 97
2018-11-17 07:00:00 10.5 0 Calma 8 Sur 0 999.2 -0.4 96
2018-11-17 06:00:00 11 6 Sudeste 10 Sur 0 999.1 -0.4 97
2018-11-17 05:00:00 10.7 0 Calma 5 Este 0 999.4 -0.8 97
2018-11-17 04:00:00 11.1 0 Calma 11 Este 0 999.6 -0.7 96
2018-11-17 03:00:00 11.7 8 Este 12 Este 0 999.5 -0.7 96
2018-11-17 02:00:00 12.1 5 Sudeste 7 Sudeste 0 1000.2 -0.2 95
2018-11-17 01:00:00 12.3 0 Calma 4 Sudoeste 0 1000.3 -0.1 94
2018-11-17 00:00:00 12.8 0 Calma 7 Sudeste 0 1000.2 -0.1 91
2018-11-16 23:00:00 13 0 Calma 4 Este 0 1000.4 0.1 90
2018-11-16 22:00:00 13.9 0 Calma 5 Sur 0 1000.4 0.4 84
2018-11-16 21:00:00 14.4 6 Sur 15 Sudoeste 0 1000.3 0.5 81
2018-11-16 20:00:00 15.3 4 Sur 19 Sur 0 1000.3 0.2 75
2018-11-16 19:00:00 17 12 Sur 19 Sur 0 1000 0.4 68
2018-11-16 18:00:00 18.2 0 Calma 8 Sudeste 0 999.8 0 61
2018-11-16 17:00:00 19 5 Sudeste 16 Sudeste 0 1000.1 -0.1 57
2018-11-16 16:00:00 20.1 9 Sudeste 17 Sur 0 999.6 -1.5 51
2018-11-16 15:00:00 20.2 13 Sudeste 23 Sudeste 0 999.8 -2.2 51
2018-11-16 14:00:00 20 12 Este 21 Sudeste 0 1000.2 -2.3 52
2018-11-16 13:00:00 20 13 Este 21 Este 0 1001.1 -1.4 57
2018-11-16 12:00:00 18.4 13 Este 19 Este 0 1002 -0.1 62
2018-11-16 11:00:00 16.4 7 Este 11 Este 0 1002.5 0.4 83
2018-11-16 10:00:00 12.9 0 Calma 8 Sur 0 1002.5 0.7 99
2018-11-16 09:00:00 11.7 0 Calma 4 Noroeste 0 1002.1 0.4 99
2018-11-16 08:00:00 11.3 0 Calma 3 Sur 0 1002.1 0.5 99
2018-11-16 07:00:00 10.9 0 Calma 3 Nordeste 0 1001.8 0 99
2018-11-16 06:00:00 11.2 0 Calma 6 Sur 0 1001.7 -0.5 99
2018-11-16 05:00:00 10.8 0 Calma 4 Noroeste 0 1001.6 -0.6 99
2018-11-16 04:00:00 10.8 0 Calma 2 Nordeste 0 1001.8 -0.3 98
2018-11-16 03:00:00 11.4 0 Calma 6 Noroeste 0 1002.2 0 95
2018-11-16 02:00:00 12.1 0 Calma 4 Norte 0 1002.2 0 94
2018-11-16 01:00:00 12.1 2 Norte 5 Norte 0 1002.1 0.6 92
2018-11-16 00:00:00 13 0 Calma 2 Sudeste 0 1002.2 1.2 90
2018-11-15 23:00:00 13.2 0 Calma 5 Sudeste 0 1002.2 1.4 87
2018-11-15 22:00:00 13.8 0 Calma 4 Sudoeste 0 1001.5 1 87
2018-11-15 21:00:00 14.3 0 Calma 10 Sur 0 1001 1.1 83
2018-11-15 20:00:00 15.3 7 Sudoeste 8 Sudoeste 0 1000.8 1.2 76
2018-11-15 19:00:00 16.6 0 Calma -- -- 0 1000.5 1.1 67
2018-11-15 18:00:00 18.3 0 Calma 4 Norte 0 999.9 0.4 61
2018-11-15 17:00:00 19.6 0 Calma 7 Nordeste 0 999.6 -0.4 54
2018-11-15 16:00:00 20.1 4 Nordeste 9 Nordeste 0 999.4 -1 53
2018-11-15 15:00:00 20.4 0 Calma 8 Nordeste 0 999.5 -1.5 54
2018-11-15 14:00:00 19.7 4 Nordeste 9 Nordeste 0 1000 -0.9 57
2018-11-15 13:00:00 18.8 0 Calma 8 Nordeste 0 1000.4 -0.2 61
2018-11-15 12:00:00 17.5 0 Calma 7 Norte 0 1001 0.8 71
2018-11-15 11:00:00 15.4 0 Calma 12 Este 0 1000.9 1.2 82
2018-11-15 10:00:00 13.4 0 Calma 5 Nordeste 0 1000.6 1.2 94
2018-11-15 09:00:00 12.5 0 Calma 5 Nordeste 0 1000.2 1.1 95
2018-11-15 08:00:00 12.4 2 Noroeste 4 Noroeste 0 999.7 0.7 94
2018-11-15 07:00:00 12.2 0 Calma 5 Sur 0 999.4 0.1 94
2018-11-15 06:00:00 12.3 3 Sur 5 Sur 0 999.1 -0.2 94
2018-11-15 05:00:00 12.5 3 Sur 10 Sudeste 0 999 -0.6 94
2018-11-15 04:00:00 12.5 5 Sudeste 8 Sudeste 0 999.3 -0.9 94
2018-11-15 03:00:00 12.9 6 Sudeste 7 Sudeste 0 999.3 -1.1 93
2018-11-15 02:00:00 14 0 Calma 6 Noroeste 0 999.6 -1.1 91
2018-11-15 01:00:00 14.8 0 Calma 4 Nordeste 0 1000.2 -0.6 91
2018-11-15 00:00:00 15 0 Calma 5 Sudeste 0 1000.4 -0.2 90
2018-11-14 23:00:00 15.2 0 Calma 4 Este 0 1000.7 0 89
2018-11-14 22:00:00 15.7 0 Calma 7 Sudoeste 0 1000.8 0.2 83
2018-11-14 21:00:00 15.6 2 Noroeste 8 Noroeste 0 1000.6 0.3 82
2018-11-14 20:00:00 16.8 0 Calma 14 Nordeste 0 1000.7 0.4 71
2018-11-14 19:00:00 18.5 0 Calma 9 Norte 0 1000.6 0.2 65
2018-11-14 18:00:00 19.6 4 Norte 16 Nordeste 0 1000.3 -0.4 60
2018-11-14 17:00:00 20.5 8 Nordeste 18 Este 0 1000.3 -1.3 54
2018-11-14 16:00:00 21 11 Este 19 Nordeste 0 1000.4 -2 51
2018-11-14 15:00:00 20.9 12 Este 19 Este 0 1000.7 -3 51
2018-11-14 14:00:00 20.6 11 Este 18 Este 0 1001.6 -2.6 54
2018-11-14 13:00:00 19.9 8 Nordeste 17 Este 0 1002.4 -2 57
2018-11-14 12:00:00 18 4 Nordeste 10 Este 0 1003.7 -0.6 69
2018-11-14 11:00:00 15.4 0 Calma 6 Este 0 1004.2 0.2 87
2018-11-14 10:00:00 13.4 0 Calma 4 Nordeste 0 1004.4 0.3 98
2018-11-14 09:00:00 12.6 0 Calma 7 Norte 0 1004.3 -0.1 98
2018-11-14 08:00:00 12.3 4 Norte 8 Noroeste 0 1004 -0.5 99
2018-11-14 07:00:00 12.2 0 Calma 5 Sur 0 1004.1 -0.9 98
2018-11-14 06:00:00 12.2 4 Sudeste 6 Sudeste 0 1004.4 -1.2 98
2018-11-14 05:00:00 12.2 0 Calma 7 Noroeste 0 1004.5 -1.4 98
2018-11-14 04:00:00 12.3 0 Calma 5 Norte 0 1005 -1.6 97
2018-11-14 03:00:00 12.6 0 Calma 3 Noroeste 0 1005.6 -0.8 96
2018-11-14 02:00:00 12.6 0 Calma 4 Este 0 1005.9 -0.3 95
2018-11-14 01:00:00 13.3 0 Calma 8 Sudoeste 0 1006.6 0.7 93
2018-11-14 00:00:00 13.6 0 Calma 3 Sur 0 1006.4 0.2 89
2018-11-13 23:00:00 14 3 Sur 6 Sur 0 1006.2 0 88
2018-11-13 22:00:00 14.7 0 Calma -- -- 0 1005.9 -0.1 82
2018-11-13 21:00:00 15.3 0 Calma 10 Sudoeste 0 1006.2 0.9 75
2018-11-13 20:00:00 16.5 5 Sur 13 Sur 0 1006.2 1.5 69
2018-11-13 19:00:00 17.4 0 Calma 10 Sudoeste 0 1006 1.5 67
2018-11-13 18:00:00 18.8 2 Norte 10 Norte 0 1005.3 0.9 60
2018-11-13 17:00:00 19.5 6 Norte 13 Norte 0 1004.7 -0.2 57
2018-11-13 16:00:00 21.2 2 Este 9 Este 0 1004.5 -1 52
2018-11-13 15:00:00 20.8 2 Nordeste 10 Este 0 1004.4 -1.9 53
2018-11-13 14:00:00 20.1 0 Calma 11 Nordeste 0 1004.9 -1.5 56
2018-11-13 13:00:00 18.7 4 Nordeste 12 Sudeste 0 1005.5 -0.4 61
2018-11-13 12:00:00 16.8 6 Este 14 Este 0 1006.3 0.4 68
2018-11-13 11:00:00 15.3 8 Este 15 Nordeste 0 1006.4 1.5 79
2018-11-13 10:00:00 12.4 6 Este 8 Este 0 1005.9 0.8 99
2018-11-13 09:00:00 11.3 4 Este 15 Este 0 1005.9 0.9 99
2018-11-13 08:00:00 11.2 9 Nordeste 14 Nordeste 0 1004.9 0.1 99
2018-11-13 07:00:00 10.8 4 Este 12 Este 0 1005.1 -0.2 99
2018-11-13 06:00:00 11.7 9 Este 14 Este 0 1005 0 99
2018-11-13 05:00:00 11.4 4 Sudeste 11 Sudeste 0 1004.8 -0.1 99
2018-11-13 04:00:00 11.2 7 Este 10 Este 0 1005.3 0.6 99
2018-11-13 03:00:00 11.3 2 Este 6 Sudeste 0 1005 0.7 99
2018-11-13 02:00:00 11.2 5 Sudeste 8 Sudeste 0 1004.9 0.9 99
2018-11-13 01:00:00 11.7 0 Calma 6 Sudeste 0 1004.7 1 97
2018-11-13 00:00:00 12.4 0 Calma 9 Oeste 0 1004.3 1.2 95
2018-11-12 23:00:00 13 5 Oeste 7 Sudoeste 0 1004 1.8 95
2018-11-12 22:00:00 13.2 4 Oeste 9 Noroeste 0 1003.7 2.1 95
2018-11-12 21:00:00 13.7 6 Norte 18 Noroeste 0 1003.1 2 93
2018-11-12 20:00:00 14.3 15 Noroeste 19 Noroeste 0 1002.2 1.7 93
2018-11-12 19:00:00 15.5 2 Noroeste 4 Noroeste 0 1001.6 1.1 77
2018-11-12 18:00:00 16.9 0 Calma 5 Este 0 1001.1 0.4 71
2018-11-12 17:00:00 17.7 3 Este 9 Este 0 1000.5 -0.2 66
2018-11-12 16:00:00 17.1 6 Este 18 Sudeste 0 1000.5 -0.7 70
2018-11-12 15:00:00 17.1 11 Sudeste 16 Este 0 1000.7 -0.8 71
2018-11-12 14:00:00 17.1 4 Este 12 Este 0 1000.7 -1.1 73
2018-11-12 13:00:00 15.6 4 Este 12 Este 0 1001.2 0.3 82
2018-11-12 12:00:00 14.7 4 Sudeste 10 Este 0 1001.5 1.6 86
2018-11-12 11:00:00 13.9 3 Oeste 16 Sudoeste 0 1001.8 2.6 94
2018-11-12 10:00:00 12.9 10 Oeste 17 Sudoeste 1.1 1000.9 2.8 99
2018-11-12 09:00:00 12.6 3 Norte 7 Noroeste 0.3 999.9 1.6 99
2018-11-12 08:00:00 12.2 0 Calma 5 Sudeste 0.3 999.2 1.2 99
2018-11-12 07:00:00 12.2 0 Calma 8 Sur 0 998.1 -0.7 99
2018-11-12 06:00:00 12 4 Sur 8 Sur 0 998.3 -0.6 99
2018-11-12 05:00:00 11.8 3 Sur 6 Sudeste 0 998 -0.7 99
2018-11-12 04:00:00 12.3 0 Calma 9 Sudeste 0 998.8 -0.1 99
2018-11-12 03:00:00 12.4 0 Calma 5 Sudeste 0 998.9 0.1 99
2018-11-12 02:00:00 13 5 Sur 11 Sudoeste 0 998.7 0 98
2018-11-12 01:00:00 13.8 9 Sudoeste 12 Sudoeste 0 998.9 0.3 96
2018-11-12 00:00:00 14 10 Sudoeste 13 Sudoeste 0 998.8 0.7 95
2018-11-11 23:00:00 14.5 9 Sudoeste 18 Sudoeste 0 998.7 1.1 92
2018-11-11 22:00:00 15.3 14 Sudoeste 22 Oeste 0 998.6 1.2 90
2018-11-11 21:00:00 16 13 Oeste 28 Oeste 0 998.1 1.3 90
2018-11-11 20:00:00 16.8 14 Oeste 40 Oeste 0 997.6 0.7 84
2018-11-11 19:00:00 18 8 Oeste 13 Oeste 0 997.4 0 72
2018-11-11 18:00:00 20 0 Calma 7 Noroeste 0 996.8 -0.9 63
2018-11-11 17:00:00 21.5 3 Noroeste 8 Nordeste 0 996.9 -1.8 55
2018-11-11 16:00:00 20.9 3 Norte 10 Sudoeste 0 997.4 -2.7 56
2018-11-11 15:00:00 20.8 4 Sudeste 11 Este 0 997.7 -3.8 58
2018-11-11 14:00:00 20.4 5 Sudeste 12 Sudeste 0 998.7 -3.6 63
2018-11-11 13:00:00 18.8 4 Este 12 Sudeste 0 1000.1 -2.7 72
2018-11-11 12:00:00 17.7 5 Sudeste 10 Sudeste 0 1001.5 -1.1 82
2018-11-11 11:00:00 15.7 2 Sudoeste 10 Sur 0 1002.3 -0.3 99
2018-11-11 10:00:00 14.4 5 Sudeste 8 Sudeste 0 1002.8 0.6 99
2018-11-11 09:00:00 13.7 5 Sudeste 10 Sudeste 0.5 1002.6 0.3 99
2018-11-11 08:00:00 13.7 8 Sur 10 Sur 0.7 1002.6 0.3 99
2018-11-11 07:00:00 13.7 4 Sudeste 7 Sudeste 0 1002.2 -0.6 98
2018-11-11 06:00:00 13.9 5 Sudeste 8 Sudeste 0 1002.3 -0.7 95
2018-11-11 05:00:00 14.3 5 Sudoeste 9 Sudoeste 0 1002.3 -0.9 94
2018-11-11 04:00:00 13.8 5 Sudoeste 9 Sudoeste 0 1002.8 -1 93
2018-11-11 03:00:00 14.3 8 Sudoeste 11 Sudoeste 0 1003 -0.9 92
2018-11-11 02:00:00 14.6 8 Sur 13 Sur 0 1003.2 -1.2 91
2018-11-11 01:00:00 14.8 6 Sur 10 Sur 0 1003.8 -0.7 91
2018-11-11 00:00:00 14.7 4 Sur 8 Sur 0 1003.9 -0.3 91
2018-11-10 23:00:00 14.8 5 Sur 11 Sur 0 1004.4 0.4 91
2018-11-10 22:00:00 14.8 4 Sur 9 Sudoeste 0 1004.5 0.6 91
2018-11-10 21:00:00 15 6 Sudoeste 12 Sudoeste 0 1004.2 0.4 90
2018-11-10 20:00:00 15 4 Sur 10 Sur 0 1004 0.2 91
2018-11-10 19:00:00 15.2 8 Sur 12 Sudoeste 0 1003.9 -0.1 89
2018-11-10 18:00:00 15.5 10 Sudoeste 17 Sur 0 1003.8 -0.4 87
2018-11-10 17:00:00 15.8 10 Sur 17 Sudoeste 0 1003.8 -0.5 86
2018-11-10 16:00:00 16.4 9 Sudoeste 18 Sudoeste 0 1004 -1.2 80
2018-11-10 15:00:00 16.3 12 Sudoeste 21 Sudoeste 0 1004.2 -1.8 79
2018-11-10 14:00:00 15.4 13 Sudoeste 20 Oeste 0 1004.3 -1.9 82
2018-11-10 13:00:00 15 2 Oeste 10 Oeste 0 1005.2 -1.2 81
2018-11-10 12:00:00 14.4 3 Sudeste 8 Este 0 1006 -0.1 83
2018-11-10 11:00:00 12.8 0 Calma 10 Sudeste 0 1006.2 0.3 93
2018-11-10 10:00:00 10.8 5 Sudeste 9 Sudeste 0 1006.4 0.5 99
2018-11-10 09:00:00 9.6 5 Sudeste 10 Sudeste 0 1006.1 -0.1 99
2018-11-10 08:00:00 8.8 3 Sur 7 Sur 0 1005.9 -0.4 99
2018-11-10 07:00:00 8.8 0 Calma 7 Sudeste 0 1005.9 -0.5 99
2018-11-10 06:00:00 8.4 0 Calma 5 Sudeste 0 1006.2 -0.6 99
2018-11-10 05:00:00 8.4 0 Calma 5 Sur 0 1006.3 -0.9 98
2018-11-10 04:00:00 8.7 4 Sur 5 Sudeste 0 1006.4 -1.2 98
2018-11-10 03:00:00 8.8 5 Sudeste 7 Sudeste 0 1006.8 -1.3 97
2018-11-10 02:00:00 9.1 3 Sudeste 5 Sudeste 0 1007.2 -1.1 95
2018-11-10 01:00:00 9.5 0 Calma 8 Sur 0 1007.6 -0.7 92
2018-11-10 00:00:00 10.2 5 Sur 14 Sudoeste 0 1008.1 0.1 91
2018-11-09 23:00:00 11.6 14 Sudoeste 21 Sudoeste 0 1008.3 0.6 83
2018-11-09 22:00:00 11.9 14 Oeste 24 Sudoeste 0 1008.3 1 81
2018-11-09 21:00:00 12.5 15 Oeste 26 Sudoeste 0 1008 0.8 76
2018-11-09 20:00:00 12.7 15 Sudoeste 21 Sudoeste 0 1007.7 0.6 72
2018-11-09 19:00:00 13 12 Sudoeste 16 Sudoeste 0 1007.3 0.2 69
2018-11-09 18:00:00 14.7 8 Oeste 19 Oeste 0 1007.2 -0.1 60
2018-11-09 17:00:00 16.4 10 Oeste 19 Oeste 0 1007.1 -1.2 52
2018-11-09 16:00:00 16.5 6 Oeste 17 Oeste 0 1007.1 -2.1 54
2018-11-09 15:00:00 16.5 7 Oeste 17 Oeste 0 1007.3 -2.4 55
2018-11-09 14:00:00 15.7 6 Oeste 15 Oeste 0 1008.3 -1.5 57
2018-11-09 13:00:00 15 9 Oeste 17 Oeste 0 1009.2 -0.6 61
2018-11-09 12:00:00 13.9 4 Oeste 10 Sudoeste 0 1009.7 0.8 69
2018-11-09 11:00:00 12.7 5 Este 8 Sudeste 0 1009.8 1.3 86
2018-11-09 10:00:00 10.1 6 Sudeste 10 Este 0 1009.8 1.8 98
2018-11-09 09:00:00 8.3 2 Sudeste 10 Sudeste 0 1008.9 1.3 98
2018-11-09 08:00:00 7.4 7 Sudeste 16 Oeste 0 1008.5 1.5 94
2018-11-09 07:00:00 8.9 7 Oeste 19 Oeste 0 1008 1.2 92
2018-11-09 06:00:00 9.1 13 Oeste 20 Oeste 0 1007.6 1.3 91
2018-11-09 05:00:00 9.1 10 Oeste 17 Oeste 0 1007 1.1 89
2018-11-09 04:00:00 9.5 2 Oeste 21 Oeste 0 1006.8 0.9 87
2018-11-09 03:00:00 10.2 13 Oeste 19 Oeste 0 1006.3 0.9 87
2018-11-09 02:00:00 10.4 10 Oeste 19 Oeste 0 1005.9 1.3 87
2018-11-09 01:00:00 10.6 10 Oeste 18 Noroeste 0 1005.9 2.4 87
2018-11-09 00:00:00 11.5 8 Oeste 13 Oeste 0 1005.4 2.6 89